Time;durP1;ratioP1;P1;durP2;ratioP2;P2;SDS_P1;SDS_P2;PMS_P1;PMS_P2;Temp;Humidity;BMP_temperature;BMP_pressure;BME280_temperature;BME280_humidity;BME280_pressure;Samples;Min_cycle;Max_cycle;Signal;HPM_P1;HPM_P2
2023/05/02 00:00:07;;;;;;;6.57;3.38;;;;;;;;;;5055034;28;20701;-79
2023/05/02 00:02:33;;;;;;;7.18;3.45;;;;;;;;;;5056741;28;20392;-79
2023/05/02 00:04:58;;;;;;;7.07;3.20;;;;;;;;;;5055497;28;20043;-78
2023/05/02 00:07:25;;;;;;;7.30;3.45;;;;;;;;;;5057642;28;20447;-79
2023/05/02 00:09:50;;;;;;;8.03;3.50;;;;;;;;;;5055485;28;20408;-79
2023/05/02 00:12:16;;;;;;;6.45;3.28;;;;;;;;;;5037319;28;20033;-79
2023/05/02 00:14:41;;;;;;;5.85;2.95;;;;;;;;;;5056373;28;20501;-79
2023/05/02 00:17:07;;;;;;;6.55;3.53;;;;;;;;;;5054451;28;20154;-79
2023/05/02 00:19:37;;;;;;;6.90;3.25;;;;;;;;;;5054324;28;20059;-79
2023/05/02 00:22:02;;;;;;;6.20;3.03;;;;;;;;;;5061077;28;20061;-79
2023/05/02 00:24:27;;;;;;;6.05;3.20;;;;;;;;;;5044940;28;20496;-79
2023/05/02 00:26:53;;;;;;;8.52;3.47;;;;;;;;;;5059033;28;20045;-80
2023/05/02 00:29:18;;;;;;;6.20;3.10;;;;;;;;;;5052064;28;20461;-80
2023/05/02 00:31:44;;;;;;;6.05;3.20;;;;;;;;;;5052391;28;20048;-79
2023/05/02 00:34:09;;;;;;;8.23;2.95;;;;;;;;;;5044021;28;20155;-81
2023/05/02 00:36:34;;;;;;;6.63;3.55;;;;;;;;;;5057443;28;20039;-81
2023/05/02 00:39:00;;;;;;;6.43;2.97;;;;;;;;;;5042813;28;20098;-81
2023/05/02 00:41:25;;;;;;;6.80;3.80;;;;;;;;;;5054029;28;20033;-81
2023/05/02 00:43:51;;;;;;;6.38;3.25;;;;;;;;;;5055853;28;20043;-81
2023/05/02 00:46:16;;;;;;;6.50;3.35;;;;;;;;;;5052474;28;20488;-81
2023/05/02 00:48:42;;;;;;;6.78;3.42;;;;;;;;;;5050985;28;20284;-80
2023/05/02 00:51:10;;;;;;;6.18;3.47;;;;;;;;;;5054616;28;20029;-80
2023/05/02 00:53:36;;;;;;;5.80;3.13;;;;;;;;;;5060667;28;20496;-81
2023/05/02 00:56:02;;;;;;;5.70;2.97;;;;;;;;;;5038098;28;20041;-80
2023/05/02 00:58:28;;;;;;;9.07;3.35;;;;;;;;;;5035662;28;20035;-80
2023/05/02 01:01:23;;;;;;;6.38;2.85;;;;;;;;;;5020537;28;20427;-80
2023/05/02 01:04:01;;;;;;;5.82;3.40;;;;;;;;;;5059399;28;20032;-80
2023/05/02 01:07:03;;;;;;;6.63;3.22;;;;;;;;;;5053252;28;20033;-78
2023/05/02 01:09:40;;;;;;;5.70;3.25;;;;;;;;;;5053722;28;20114;-80
2023/05/02 01:12:30;;;;;;;5.53;3.38;;;;;;;;;;5052974;28;20540;-80
2023/05/02 01:14:58;;;;;;;5.65;3.35;;;;;;;;;;5042378;28;20040;-81
2023/05/02 01:17:27;;;;;;;7.13;3.80;;;;;;;;;;5054761;28;20707;-81
2023/05/02 01:19:56;;;;;;;7.20;3.25;;;;;;;;;;5049812;28;20127;-80
2023/05/02 01:22:23;;;;;;;7.90;3.15;;;;;;;;;;5054946;28;20047;-80
2023/05/02 01:24:58;;;;;;;9.48;3.10;;;;;;;;;;5055149;28;20358;-80
2023/05/02 01:27:46;;;;;;;7.00;3.40;;;;;;;;;;5043213;28;20553;-80
2023/05/02 01:30:12;;;;;;;6.22;3.38;;;;;;;;;;5050154;28;20029;-79
2023/05/02 01:32:39;;;;;;;7.82;3.80;;;;;;;;;;5038748;28;20112;-79
2023/05/02 01:35:06;;;;;;;6.38;3.60;;;;;;;;;;5060836;28;20497;-81
2023/05/02 01:37:32;;;;;;;6.17;3.27;;;;;;;;;;5053317;28;20397;-81
2023/05/02 01:39:59;;;;;;;6.10;3.38;;;;;;;;;;5059140;28;20036;-80
2023/05/02 01:42:24;;;;;;;6.78;3.42;;;;;;;;;;5059315;28;20087;-81
2023/05/02 01:44:53;;;;;;;6.20;3.30;;;;;;;;;;5060908;28;20075;-80
2023/05/02 01:47:18;;;;;;;5.95;3.60;;;;;;;;;;5059324;28;20115;-81
2023/05/02 01:49:45;;;;;;;6.78;3.15;;;;;;;;;;5053248;28;20131;-81
2023/05/02 01:52:12;;;;;;;7.05;3.65;;;;;;;;;;5058561;28;20039;-81
2023/05/02 01:54:39;;;;;;;5.57;3.20;;;;;;;;;;5052707;28;20086;-80
2023/05/02 01:57:06;;;;;;;5.55;2.92;;;;;;;;;;5052193;28;20036;-80
2023/05/02 01:59:33;;;;;;;10.32;3.78;;;;;;;;;;5052891;28;20051;-80
2023/05/02 02:02:00;;;;;;;6.00;3.15;;;;;;;;;;5059698;28;20032;-80
2023/05/02 02:04:27;;;;;;;7.43;3.28;;;;;;;;;;5060419;28;20108;-80
2023/05/02 02:06:57;;;;;;;8.05;3.72;;;;;;;;;;5053832;28;20033;-80
2023/05/02 02:09:22;;;;;;;7.13;3.63;;;;;;;;;;5050337;28;20055;-80
2023/05/02 02:11:52;;;;;;;6.25;3.40;;;;;;;;;;5036949;28;20028;-80
2023/05/02 02:14:30;;;;;;;7.85;3.20;;;;;;;;;;5059540;28;20044;-80
2023/05/02 02:17:00;;;;;;;5.28;3.30;;;;;;;;;;5054127;28;20586;-80
2023/05/02 02:19:27;;;;;;;5.85;3.00;;;;;;;;;;5059496;28;20073;-80
2023/05/02 02:21:53;;;;;;;7.72;3.40;;;;;;;;;;5033473;28;20124;-80
2023/05/02 02:24:20;;;;;;;6.72;3.25;;;;;;;;;;5051755;28;20067;-80
2023/05/02 02:26:45;;;;;;;7.00;3.35;;;;;;;;;;5034946;28;20048;-80
2023/05/02 02:29:11;;;;;;;7.25;3.40;;;;;;;;;;5037384;28;20431;-80
2023/05/02 02:31:38;;;;;;;7.07;3.00;;;;;;;;;;5050572;28;20037;-80
2023/05/02 02:34:04;;;;;;;7.25;2.97;;;;;;;;;;5050268;28;20665;-80
2023/05/02 02:36:37;;;;;;;5.65;3.40;;;;;;;;;;5055053;28;20068;-80
2023/05/02 02:39:14;;;;;;;5.70;3.20;;;;;;;;;;5053578;28;20033;-80
2023/05/02 02:41:44;;;;;;;6.85;3.30;;;;;;;;;;5042098;28;20040;-80
2023/05/02 02:44:30;;;;;;;6.13;3.08;;;;;;;;;;5068362;28;20084;-80
2023/05/02 02:47:07;;;;;;;5.72;2.97;;;;;;;;;;5046876;28;20032;-80
2023/05/02 02:49:33;;;;;;;;;;;;;;;;;;5054067;28;20033;-80
2023/05/02 02:52:11;;;;;;;7.80;2.85;;;;;;;;;;5049297;28;19912;-79
2023/05/02 02:54:43;;;;;;;5.07;2.60;;;;;;;;;;5051388;28;20037;-80
2023/05/02 02:57:36;;;;;;;6.65;3.03;;;;;;;;;;5053884;28;20047;-80
2023/05/02 03:00:15;;;;;;;6.18;3.05;;;;;;;;;;5051488;28;20117;-80
2023/05/02 03:02:42;;;;;;;5.82;3.20;;;;;;;;;;5049901;28;20036;-80
2023/05/02 03:05:08;;;;;;;6.13;2.88;;;;;;;;;;5058506;28;20408;-80
2023/05/02 03:07:33;;;;;;;5.80;2.67;;;;;;;;;;5052260;28;20029;-80
2023/05/02 03:10:02;;;;;;;6.25;3.00;;;;;;;;;;5058724;28;20033;-79
2023/05/02 03:12:27;;;;;;;5.32;2.75;;;;;;;;;;5049693;28;20055;-80
2023/05/02 03:15:02;;;;;;;5.30;2.88;;;;;;;;;;5056022;28;20448;-81
2023/05/02 03:17:27;;;;;;;5.43;3.05;;;;;;;;;;5052372;28;20552;-81
2023/05/02 03:19:52;;;;;;;6.55;2.63;;;;;;;;;;5051836;28;20200;-80
2023/05/02 03:22:18;;;;;;;6.35;2.75;;;;;;;;;;5053982;28;20078;-81
2023/05/02 03:24:43;;;;;;;5.15;2.90;;;;;;;;;;5056996;28;20634;-82
2023/05/02 03:27:08;;;;;;;6.03;2.75;;;;;;;;;;5061961;28;20037;-82
2023/05/02 03:29:34;;;;;;;6.60;2.72;;;;;;;;;;5056560;28;20445;-81
2023/05/02 03:32:00;;;;;;;5.47;2.80;;;;;;;;;;5054084;28;20078;-81
2023/05/02 03:34:25;;;;;;;7.88;3.20;;;;;;;;;;5046602;28;20036;-81
2023/05/02 03:36:50;;;;;;;7.38;2.85;;;;;;;;;;5057647;28;20500;-81
2023/05/02 03:39:16;;;;;;;6.88;2.75;;;;;;;;;;5055480;28;20033;-83
2023/05/02 03:41:42;;;;;;;5.40;2.83;;;;;;;;;;5060292;28;20029;-80
2023/05/02 03:44:07;;;;;;;4.32;2.55;;;;;;;;;;5056890;28;20028;-81
2023/05/02 03:46:33;;;;;;;5.60;2.40;;;;;;;;;;5054994;28;20786;-80
2023/05/02 03:48:58;;;;;;;4.90;2.60;;;;;;;;;;5056468;28;20116;-80
2023/05/02 03:51:24;;;;;;;5.85;2.40;;;;;;;;;;5045718;28;20097;-80
2023/05/02 03:53:49;;;;;;;6.13;2.38;;;;;;;;;;5055180;28;20107;-81
2023/05/02 03:56:22;;;;;;;6.22;2.63;;;;;;;;;;5056630;28;20033;-80
2023/05/02 03:58:48;;;;;;;4.20;2.22;;;;;;;;;;5054790;28;20526;-81
2023/05/02 04:01:14;;;;;;;6.22;2.72;;;;;;;;;;5053066;28;20036;-79
2023/05/02 04:03:40;;;;;;;4.85;2.47;;;;;;;;;;5054373;28;20114;-80
2023/05/02 04:06:05;;;;;;;5.97;2.55;;;;;;;;;;5056229;28;20112;-80
2023/05/02 04:08:31;;;;;;;6.00;2.20;;;;;;;;;;5045857;28;20032;-80
2023/05/02 04:10:56;;;;;;;5.18;2.08;;;;;;;;;;5043929;28;20476;-80
2023/05/02 04:13:22;;;;;;;4.82;2.47;;;;;;;;;;5054031;28;20064;-81
2023/05/02 04:15:47;;;;;;;6.10;2.38;;;;;;;;;;5054176;28;20037;-80
2023/05/02 04:18:13;;;;;;;5.43;2.35;;;;;;;;;;5052675;28;20036;-81
2023/05/02 04:20:38;;;;;;;3.97;1.92;;;;;;;;;;5040452;28;20090;-81
2023/05/02 04:23:03;;;;;;;4.38;2.08;;;;;;;;;;5055331;28;20044;-80
2023/05/02 04:25:29;;;;;;;4.45;2.17;;;;;;;;;;5052615;28;20058;-80
2023/05/02 04:27:55;;;;;;;4.65;2.00;;;;;;;;;;5053243;28;20053;-80
2023/05/02 04:30:20;;;;;;;5.47;2.45;;;;;;;;;;5053034;28;20036;-79
2023/05/02 04:32:46;;;;;;;5.28;2.10;;;;;;;;;;5058281;28;20033;-81
2023/05/02 04:35:11;;;;;;;5.07;2.03;;;;;;;;;;5059281;28;20060;-81
2023/05/02 04:37:36;;;;;;;5.13;2.50;;;;;;;;;;5058067;28;20059;-79
2023/05/02 04:40:03;;;;;;;4.30;2.10;;;;;;;;;;5063382;28;20473;-79
2023/05/02 04:42:28;;;;;;;5.00;2.40;;;;;;;;;;5058932;28;20035;-79
2023/05/02 04:44:53;;;;;;;4.55;1.90;;;;;;;;;;5059531;28;20040;-81
2023/05/02 04:47:19;;;;;;;6.43;2.08;;;;;;;;;;5062401;28;20119;-80
2023/05/02 04:49:45;;;;;;;3.90;2.05;;;;;;;;;;5044246;28;20508;-80
2023/05/02 04:52:10;;;;;;;5.50;1.80;;;;;;;;;;5058251;28;20484;-80
2023/05/02 04:54:36;;;;;;;4.80;2.10;;;;;;;;;;5025335;28;20509;-80
2023/05/02 04:57:02;;;;;;;3.67;1.65;;;;;;;;;;5056035;28;20028;-80
2023/05/02 04:59:31;;;;;;;4.53;1.98;;;;;;;;;;5056897;28;20111;-81
2023/05/02 05:01:57;;;;;;;3.97;1.83;;;;;;;;;;5036536;28;20734;-80
2023/05/02 05:04:23;;;;;;;4.50;1.90;;;;;;;;;;5051185;28;20071;-80
2023/05/02 05:06:49;;;;;;;4.80;1.73;;;;;;;;;;5041610;28;20037;-80
2023/05/02 05:09:14;;;;;;;4.43;1.90;;;;;;;;;;5055144;28;20585;-80
2023/05/02 05:11:41;;;;;;;5.10;2.10;;;;;;;;;;5061611;28;20115;-80
2023/05/02 05:14:07;;;;;;;5.22;1.92;;;;;;;;;;5054637;28;20037;-79
2023/05/02 05:16:33;;;;;;;4.70;2.10;;;;;;;;;;5062046;28;20033;-80
2023/05/02 05:18:59;;;;;;;6.32;2.20;;;;;;;;;;5042394;28;20082;-80
2023/05/02 05:21:24;;;;;;;5.70;1.90;;;;;;;;;;5040089;28;20036;-80
2023/05/02 05:23:50;;;;;;;4.57;2.28;;;;;;;;;;5037506;28;20033;-88
2023/05/02 05:26:15;;;;;;;4.75;2.03;;;;;;;;;;5062084;28;20055;-82
2023/05/02 05:28:42;;;;;;;4.53;2.03;;;;;;;;;;5051420;28;20361;-82
2023/05/02 05:31:08;;;;;;;5.13;2.00;;;;;;;;;;5043935;28;20036;-83
2023/05/02 05:33:34;;;;;;;3.80;2.10;;;;;;;;;;5059838;28;20045;-83
2023/05/02 05:36:06;;;;;;;4.35;2.28;;;;;;;;;;5050436;28;20413;-81
2023/05/02 05:38:32;;;;;;;7.35;2.17;;;;;;;;;;5060549;28;20123;-82
2023/05/02 05:40:58;;;;;;;6.40;2.60;;;;;;;;;;5053588;28;20124;-82
2023/05/02 05:43:23;;;;;;;14.32;2.50;;;;;;;;;;5052696;28;20431;-83
2023/05/02 05:45:52;;;;;;;5.70;2.13;;;;;;;;;;5052248;28;20123;-83
2023/05/02 05:48:17;;;;;;;6.53;2.70;;;;;;;;;;5052123;28;20116;-82
2023/05/02 05:50:43;;;;;;;6.65;2.42;;;;;;;;;;5052563;28;20085;-81
2023/05/02 05:53:08;;;;;;;5.90;2.70;;;;;;;;;;5035018;28;20492;-82
2023/05/02 05:55:33;;;;;;;4.72;2.47;;;;;;;;;;5048666;28;20517;-81
2023/05/02 05:57:59;;;;;;;4.97;2.40;;;;;;;;;;5049505;28;20032;-81
2023/05/02 06:00:24;;;;;;;6.13;2.65;;;;;;;;;;5050696;28;20043;-81
2023/05/02 06:02:50;;;;;;;5.28;2.72;;;;;;;;;;5050551;28;20071;-81
2023/05/02 06:05:15;;;;;;;6.88;3.60;;;;;;;;;;5055400;28;20118;-81
2023/05/02 06:07:40;;;;;;;7.28;3.25;;;;;;;;;;5052229;28;20032;-81
2023/05/02 06:10:08;;;;;;;8.27;3.47;;;;;;;;;;5050526;28;20037;-81
2023/05/02 06:12:33;;;;;;;8.73;3.20;;;;;;;;;;5051596;28;20056;-80
2023/05/02 06:15:00;;;;;;;8.55;2.97;;;;;;;;;;5051316;28;20051;-80
2023/05/02 06:17:25;;;;;;;7.45;3.22;;;;;;;;;;5049429;28;20029;-81
2023/05/02 06:19:51;;;;;;;7.30;3.92;;;;;;;;;;5055237;28;20036;-81
2023/05/02 06:22:16;;;;;;;7.43;4.10;;;;;;;;;;5053172;28;20044;-81
2023/05/02 06:24:42;;;;;;;10.27;4.22;;;;;;;;;;5055133;28;20504;-81
2023/05/02 06:27:07;;;;;;;8.20;4.13;;;;;;;;;;5042070;28;20044;-81
2023/05/02 06:29:53;;;;;;;7.30;4.05;;;;;;;;;;5053099;28;20473;-81
2023/05/02 06:32:18;;;;;;;6.95;3.63;;;;;;;;;;5017976;28;20034;-81
2023/05/02 06:34:44;;;;;;;8.00;3.88;;;;;;;;;;4986799;28;20072;-81
2023/05/02 06:37:09;;;;;;;10.38;4.25;;;;;;;;;;5018912;28;20124;-81
2023/05/02 06:39:35;;;;;;;7.35;3.97;;;;;;;;;;5003247;28;20535;-79
2023/05/02 06:42:01;;;;;;;10.68;4.88;;;;;;;;;;5019303;28;20443;-79
2023/05/02 06:44:26;;;;;;;9.50;4.22;;;;;;;;;;5019816;28;20120;-80
2023/05/02 06:46:51;;;;;;;9.43;4.32;;;;;;;;;;5019243;28;20047;-81
2023/05/02 06:49:17;;;;;;;9.70;4.93;;;;;;;;;;5003055;28;20041;-81
2023/05/02 06:51:42;;;;;;;9.23;4.90;;;;;;;;;;5019221;28;20048;-82
2023/05/02 06:54:08;;;;;;;9.02;4.60;;;;;;;;;;4983407;28;20572;-81
2023/05/02 06:56:34;;;;;;;8.13;4.57;;;;;;;;;;5003157;28;20046;-81
2023/05/02 06:58:59;;;;;;;7.80;4.43;;;;;;;;;;5002555;28;20042;-82
2023/05/02 07:01:25;;;;;;;8.13;4.30;;;;;;;;;;5035904;28;20069;-82
2023/05/02 07:03:51;;;;;;;9.45;4.35;;;;;;;;;;5003390;28;20606;-82
2023/05/02 07:06:16;;;;;;;9.75;5.40;;;;;;;;;;5018010;28;20531;-83
2023/05/02 07:08:42;;;;;;;8.77;4.50;;;;;;;;;;5042733;28;20068;-83
2023/05/02 07:11:07;;;;;;;7.95;4.18;;;;;;;;;;5042340;28;20117;-83
2023/05/02 07:13:32;;;;;;;10.10;4.78;;;;;;;;;;5051369;28;20048;-80
2023/05/02 07:15:58;;;;;;;8.65;4.35;;;;;;;;;;5043834;28;20032;-82
2023/05/02 07:18:23;;;;;;;8.52;4.43;;;;;;;;;;5034068;28;20074;-83
2023/05/02 07:20:48;;;;;;;9.25;3.83;;;;;;;;;;5034325;28;20041;-83
2023/05/02 07:23:14;;;;;;;8.85;4.32;;;;;;;;;;5052854;28;20037;-83
2023/05/02 07:25:40;;;;;;;7.25;4.18;;;;;;;;;;5047175;28;20035;-83
2023/05/02 07:28:05;;;;;;;9.30;4.07;;;;;;;;;;5048648;28;20036;-80
2023/05/02 07:30:31;;;;;;;9.20;4.38;;;;;;;;;;5050379;28;20505;-81
2023/05/02 07:32:56;;;;;;;7.47;4.28;;;;;;;;;;5058860;28;20087;-82
2023/05/02 07:35:22;;;;;;;7.57;3.63;;;;;;;;;;5039263;28;20028;-82
2023/05/02 07:37:47;;;;;;;7.65;3.78;;;;;;;;;;5050325;28;20106;-82
2023/05/02 07:40:13;;;;;;;9.07;4.13;;;;;;;;;;5052026;28;20078;-82
2023/05/02 07:42:40;;;;;;;8.77;4.25;;;;;;;;;;5054192;28;20369;-82
2023/05/02 07:45:06;;;;;;;9.95;4.35;;;;;;;;;;5052687;28;20040;-83
2023/05/02 07:47:32;;;;;;;8.77;4.22;;;;;;;;;;5057204;28;20504;-81
2023/05/02 07:49:57;;;;;;;8.00;3.97;;;;;;;;;;5050596;28;20032;-82
2023/05/02 07:52:23;;;;;;;6.38;3.13;;;;;;;;;;5050656;28;20036;-82
2023/05/02 07:54:48;;;;;;;7.80;3.90;;;;;;;;;;5049445;28;20342;-83
2023/05/02 07:57:14;;;;;;;6.40;3.38;;;;;;;;;;5051757;28;20041;-82
2023/05/02 07:59:39;;;;;;;8.05;3.75;;;;;;;;;;5050538;28;20067;-81
2023/05/02 08:02:05;;;;;;;6.60;3.45;;;;;;;;;;5057789;28;20040;-82
2023/05/02 08:04:31;;;;;;;7.50;4.07;;;;;;;;;;5048345;28;20086;-83
2023/05/02 08:06:56;;;;;;;7.85;3.60;;;;;;;;;;5049214;28;20055;-82
2023/05/02 08:09:22;;;;;;;8.10;4.00;;;;;;;;;;5052192;28;20029;-82
2023/05/02 08:11:47;;;;;;;6.68;3.63;;;;;;;;;;5052057;28;20770;-82
2023/05/02 08:14:14;;;;;;;7.40;3.80;;;;;;;;;;5053553;28;20037;-82
2023/05/02 08:16:40;;;;;;;6.38;3.30;;;;;;;;;;5051755;28;20037;-83
2023/05/02 08:19:05;;;;;;;10.35;3.83;;;;;;;;;;5037257;28;20565;-82
2023/05/02 08:21:31;;;;;;;7.03;3.80;;;;;;;;;;5051734;28;20091;-82
2023/05/02 08:23:57;;;;;;;6.82;3.42;;;;;;;;;;5052905;28;20139;-81
2023/05/02 08:26:23;;;;;;;6.53;3.28;;;;;;;;;;5050528;28;20069;-82
2023/05/02 08:28:50;;;;;;;6.45;3.67;;;;;;;;;;5053600;28;20071;-82
2023/05/02 08:31:15;;;;;;;5.73;2.97;;;;;;;;;;5051770;28;20155;-83
2023/05/02 08:33:41;;;;;;;8.00;2.88;;;;;;;;;;5039427;28;20299;-82
2023/05/02 08:36:14;;;;;;;6.95;3.25;;;;;;;;;;5052220;28;20387;-82
2023/05/02 08:38:41;;;;;;;5.80;2.72;;;;;;;;;;5068960;28;20545;-82
2023/05/02 08:41:13;;;;;;;6.50;2.75;;;;;;;;;;5051353;28;20785;-82
2023/05/02 08:43:39;;;;;;;5.60;2.50;;;;;;;;;;5053089;28;20054;-81
2023/05/02 08:46:08;;;;;;;5.07;2.05;;;;;;;;;;5054720;28;20040;-82
2023/05/02 08:48:38;;;;;;;4.53;2.22;;;;;;;;;;5052053;28;20059;-82
2023/05/02 08:51:08;;;;;;;4.55;2.00;;;;;;;;;;5059798;28;20110;-82
2023/05/02 08:53:34;;;;;;;3.58;1.80;;;;;;;;;;5054111;28;20255;-82
2023/05/02 08:55:59;;;;;;;4.85;1.98;;;;;;;;;;5053165;28;20115;-81
2023/05/02 08:58:25;;;;;;;4.32;2.05;;;;;;;;;;5053260;28;20100;-82
2023/05/02 09:00:51;;;;;;;4.10;2.20;;;;;;;;;;5053697;28;20033;-82
2023/05/02 09:03:27;;;;;;;4.82;1.90;;;;;;;;;;5043054;28;20029;-82
2023/05/02 09:06:13;;;;;;;4.07;2.08;;;;;;;;;;5051627;28;20029;-82
2023/05/02 09:08:39;;;;;;;5.35;2.47;;;;;;;;;;5051552;28;20056;-82
2023/05/02 09:11:05;;;;;;;5.25;2.20;;;;;;;;;;5050730;28;20086;-82
2023/05/02 09:13:41;;;;;;;4.03;1.90;;;;;;;;;;5050877;28;20920;-82
2023/05/02 09:16:15;;;;;;;3.28;1.65;;;;;;;;;;5051252;28;20036;-82
2023/05/02 09:18:45;;;;;;;3.25;1.65;;;;;;;;;;5049287;28;20384;-82
2023/05/02 09:21:13;;;;;;;3.50;1.80;;;;;;;;;;5050522;28;20028;-82
2023/05/02 09:23:39;;;;;;;3.95;1.73;;;;;;;;;;5060278;28;20040;-81
2023/05/02 09:26:22;;;;;;;4.93;2.00;;;;;;;;;;5049911;28;20033;-83
2023/05/02 09:28:48;;;;;;;4.80;2.15;;;;;;;;;;5052458;28;20558;-81
2023/05/02 09:31:15;;;;;;;4.25;2.22;;;;;;;;;;5048032;28;20068;-82
2023/05/02 09:33:42;;;;;;;3.67;2.00;;;;;;;;;;5051191;28;20041;-82
2023/05/02 09:36:13;;;;;;;3.90;2.08;;;;;;;;;;5051305;28;20045;-82
2023/05/02 09:38:39;;;;;;;4.80;1.98;;;;;;;;;;5052095;28;20036;-82
2023/05/02 09:41:04;;;;;;;4.45;2.13;;;;;;;;;;5056650;28;20040;-82
2023/05/02 09:43:31;;;;;;;5.78;1.98;;;;;;;;;;5052601;28;20955;-82
2023/05/02 09:46:06;;;;;;;6.07;2.35;;;;;;;;;;5051852;28;20064;-82
2023/05/02 09:48:50;;;;;;;5.30;2.20;;;;;;;;;;5052017;28;20033;-82
2023/05/02 09:51:16;;;;;;;5.57;2.47;;;;;;;;;;5049036;28;20511;-82
2023/05/02 09:53:43;;;;;;;4.82;2.83;;;;;;;;;;5047068;28;20045;-82
2023/05/02 09:56:08;;;;;;;6.70;3.08;;;;;;;;;;5052362;28;20037;-82
2023/05/02 09:58:33;;;;;;;5.55;2.58;;;;;;;;;;5055319;28;20063;-81
2023/05/02 10:00:59;;;;;;;4.43;2.13;;;;;;;;;;5050537;28;20115;-81
2023/05/02 10:03:26;;;;;;;5.63;2.42;;;;;;;;;;5053645;28;20442;-81
2023/05/02 10:05:53;;;;;;;5.70;2.40;;;;;;;;;;5050340;28;20500;-82
2023/05/02 10:08:19;;;;;;;4.85;2.58;;;;;;;;;;5049664;28;20120;-82
2023/05/02 10:10:49;;;;;;;4.53;2.42;;;;;;;;;;5036832;28;20661;-82
2023/05/02 10:13:16;;;;;;;6.13;2.55;;;;;;;;;;5064964;28;20040;-82
2023/05/02 10:15:43;;;;;;;6.53;2.73;;;;;;;;;;5054592;28;20759;-82
2023/05/02 10:18:31;;;;;;;5.00;2.65;;;;;;;;;;5024650;28;20047;-83
2023/05/02 10:20:58;;;;;;;6.07;2.70;;;;;;;;;;5053271;28;20040;-82
2023/05/02 10:23:28;;;;;;;6.13;2.47;;;;;;;;;;5049993;28;20044;-81
2023/05/02 10:25:54;;;;;;;4.75;2.00;;;;;;;;;;5051956;28;20085;-81
2023/05/02 10:28:19;;;;;;;3.67;1.90;;;;;;;;;;5038887;28;20523;-81
2023/05/02 10:30:45;;;;;;;3.75;1.90;;;;;;;;;;5039742;28;20319;-81
2023/05/02 10:33:13;;;;;;;2.90;1.38;;;;;;;;;;5049577;28;20041;-81
2023/05/02 10:35:43;;;;;;;5.45;1.92;;;;;;;;;;5058237;28;20029;-82
2023/05/02 10:38:09;;;;;;;3.38;1.50;;;;;;;;;;5050438;28;20036;-82
2023/05/02 10:40:35;;;;;;;5.13;1.30;;;;;;;;;;5058058;28;20029;-81
2023/05/02 10:43:02;;;;;;;2.60;1.13;;;;;;;;;;5049710;28;20031;-81
2023/05/02 10:45:32;;;;;;;4.60;1.52;;;;;;;;;;5032291;28;20044;-81
2023/05/02 10:48:17;;;;;;;6.28;1.60;;;;;;;;;;5059446;28;20387;-81
2023/05/02 10:50:52;;;;;;;5.78;1.40;;;;;;;;;;5050908;28;20068;-82
2023/05/02 10:53:27;;;;;;;3.13;1.33;;;;;;;;;;5051854;28;20040;-81
2023/05/02 10:56:20;;;;;;;2.72;1.23;;;;;;;;;;5050057;28;20058;-82
2023/05/02 10:58:53;;;;;;;5.25;1.63;;;;;;;;;;5048017;28;20733;-81
2023/05/02 11:01:28;;;;;;;6.38;1.73;;;;;;;;;;5050602;28;20037;-82
2023/05/02 11:03:53;;;;;;;6.45;1.88;;;;;;;;;;5050965;28;20596;-81
2023/05/02 11:06:19;;;;;;;4.40;2.28;;;;;;;;;;5049914;28;20104;-81
2023/05/02 11:08:45;;;;;;;4.28;1.85;;;;;;;;;;5047653;28;20567;-81
2023/05/02 11:11:36;;;;;;;5.60;2.15;;;;;;;;;;5051236;28;20389;-82
2023/05/02 11:14:02;;;;;;;7.13;3.45;;;;;;;;;;5024257;28;20112;-81
2023/05/02 11:16:56;;;;;;;9.45;3.20;;;;;;;;;;5045734;28;20497;-81
2023/05/02 11:19:22;;;;;;;7.93;3.10;;;;;;;;;;5057598;28;20086;-81
2023/05/02 11:21:48;;;;;;;7.97;2.92;;;;;;;;;;5053733;28;20040;-80
2023/05/02 11:24:39;;;;;;;9.10;2.75;;;;;;;;;;5050719;28;20108;-82
2023/05/02 11:27:29;;;;;;;7.88;2.53;;;;;;;;;;5056155;28;20059;-78
2023/05/02 11:29:59;;;;;;;8.07;2.75;;;;;;;;;;5049573;28;20035;-81
2023/05/02 11:32:48;;;;;;;9.52;2.88;;;;;;;;;;5050734;28;20086;-84
2023/05/02 11:35:22;;;;;;;8.63;2.50;;;;;;;;;;5048952;28;20090;-81
2023/05/02 11:37:57;;;;;;;7.03;2.38;;;;;;;;;;5050426;28;20614;-81
2023/05/02 11:40:23;;;;;;;7.32;2.25;;;;;;;;;;5049610;28;20046;-80
2023/05/02 11:42:49;;;;;;;7.10;2.70;;;;;;;;;;5048200;28;20483;-81
2023/05/02 11:45:14;;;;;;;6.75;2.03;;;;;;;;;;5053264;28;20033;-80
2023/05/02 11:47:41;;;;;;;8.38;2.40;;;;;;;;;;5054112;28;20049;-81
2023/05/02 11:50:08;;;;;;;7.35;2.35;;;;;;;;;;5052390;28;20565;-80
2023/05/02 11:52:38;;;;;;;6.45;2.20;;;;;;;;;;5054831;28;20041;-80
2023/05/02 11:55:08;;;;;;;6.18;2.00;;;;;;;;;;5052446;28;20052;-80
2023/05/02 11:57:34;;;;;;;5.15;2.15;;;;;;;;;;5050382;28;20029;-80
2023/05/02 11:59:59;;;;;;;4.28;1.77;;;;;;;;;;5050177;28;20040;-80
2023/05/02 12:02:39;;;;;;;10.77;2.20;;;;;;;;;;5054806;28;20151;-81
2023/05/02 12:05:05;;;;;;;7.72;2.00;;;;;;;;;;5038636;28;20586;-80
2023/05/02 12:07:41;;;;;;;6.82;2.08;;;;;;;;;;5051454;28;20504;-80
2023/05/02 12:10:07;;;;;;;7.25;2.10;;;;;;;;;;5059841;28;20127;-82
2023/05/02 12:12:33;;;;;;;5.93;2.38;;;;;;;;;;5052153;28;20036;-81
2023/05/02 12:15:06;;;;;;;5.78;2.15;;;;;;;;;;5052510;28;20039;-80
2023/05/02 12:17:32;;;;;;;6.10;1.80;;;;;;;;;;5038207;28;20496;-81
2023/05/02 12:19:58;;;;;;;6.80;2.00;;;;;;;;;;5050605;28;20468;-81
2023/05/02 12:22:24;;;;;;;3.30;1.55;;;;;;;;;;5051974;28;20456;-81
2023/05/02 12:24:52;;;;;;;8.65;2.13;;;;;;;;;;5060527;28;20033;-81
2023/05/02 12:27:17;;;;;;;5.97;2.05;;;;;;;;;;5038377;28;20045;-82
2023/05/02 12:29:44;;;;;;;10.23;2.20;;;;;;;;;;5051594;28;20033;-81
2023/05/02 12:32:10;;;;;;;7.07;2.00;;;;;;;;;;5052766;28;20595;-81
2023/05/02 12:34:37;;;;;;;6.95;2.15;;;;;;;;;;5037337;28;20765;-81
2023/05/02 12:37:03;;;;;;;6.60;2.33;;;;;;;;;;5049607;28;20535;-81
2023/05/02 12:39:39;;;;;;;7.22;2.10;;;;;;;;;;5052078;28;20554;-80
2023/05/02 12:42:13;;;;;;;5.70;1.85;;;;;;;;;;5060994;28;20037;-81
2023/05/02 12:44:43;;;;;;;11.82;2.63;;;;;;;;;;5037816;28;20513;-81
2023/05/02 12:47:11;;;;;;;5.63;1.90;;;;;;;;;;5051118;28;20536;-81
2023/05/02 12:49:49;;;;;;;10.25;2.10;;;;;;;;;;5050353;28;20064;-81
2023/05/02 12:52:16;;;;;;;5.15;1.80;;;;;;;;;;5053950;28;20144;-80
2023/05/02 12:54:42;;;;;;;7.37;2.50;;;;;;;;;;5053318;28;20067;-80
2023/05/02 12:57:07;;;;;;;3.95;1.90;;;;;;;;;;5056035;28;20280;-80
2023/05/02 12:59:33;;;;;;;9.63;2.45;;;;;;;;;;5058101;28;20063;-80
2023/05/02 13:01:59;;;;;;;6.97;2.20;;;;;;;;;;5054392;28;20033;-79
2023/05/02 13:04:35;;;;;;;9.48;2.60;;;;;;;;;;5048325;28;20139;-80
2023/05/02 13:07:00;;;;;;;6.53;2.28;;;;;;;;;;5052953;28;20516;-80
2023/05/02 13:09:25;;;;;;;8.20;2.38;;;;;;;;;;5064134;28;20098;-80
2023/05/02 13:11:52;;;;;;;7.00;2.20;;;;;;;;;;5046007;28;20095;-80
2023/05/02 13:14:18;;;;;;;7.65;2.20;;;;;;;;;;5038937;28;20618;-80
2023/05/02 13:16:43;;;;;;;9.55;2.00;;;;;;;;;;5055365;28;20045;-80
2023/05/02 13:19:09;;;;;;;7.78;2.08;;;;;;;;;;5052579;28;20039;-80
2023/05/02 13:21:34;;;;;;;7.05;2.10;;;;;;;;;;5046468;28;20659;-80
2023/05/02 13:24:00;;;;;;;6.60;2.30;;;;;;;;;;5058593;28;20626;-80
2023/05/02 13:26:26;;;;;;;6.97;2.03;;;;;;;;;;5045317;28;20071;-80
2023/05/02 13:29:11;;;;;;;9.02;2.28;;;;;;;;;;5055487;28;20064;-80
2023/05/02 13:31:37;;;;;;;8.63;2.28;;;;;;;;;;5007272;28;20060;-81
2023/05/02 13:34:03;;;;;;;6.43;1.58;;;;;;;;;;5011813;28;20042;-81
2023/05/02 13:36:29;;;;;;;5.85;1.85;;;;;;;;;;5001950;28;20034;-80
2023/05/02 13:38:54;;;;;;;6.70;2.08;;;;;;;;;;4985543;28;20429;-81
2023/05/02 13:41:20;;;;;;;6.47;1.92;;;;;;;;;;4998883;28;20030;-81
2023/05/02 13:43:45;;;;;;;9.38;2.50;;;;;;;;;;4983616;28;20052;-81
2023/05/02 13:46:11;;;;;;;4.60;2.30;;;;;;;;;;5011224;28;20034;-81
2023/05/02 13:48:36;;;;;;;8.05;2.30;;;;;;;;;;5012842;28;20037;-82
2023/05/02 13:51:02;;;;;;;10.13;2.15;;;;;;;;;;5001642;28;20037;-81
2023/05/02 13:53:27;;;;;;;4.65;2.20;;;;;;;;;;4994720;28;20042;-81
2023/05/02 13:55:53;;;;;;;7.80;2.45;;;;;;;;;;5009840;28;20045;-81
2023/05/02 13:58:18;;;;;;;6.60;2.33;;;;;;;;;;4984518;28;20448;-81
2023/05/02 14:00:43;;;;;;;5.60;2.20;;;;;;;;;;5011914;28;20056;-81
2023/05/02 14:03:09;;;;;;;6.05;1.98;;;;;;;;;;5011366;28;20034;-81
2023/05/02 14:05:35;;;;;;;6.35;2.17;;;;;;;;;;4986215;28;20442;-80
2023/05/02 14:08:01;;;;;;;6.45;2.05;;;;;;;;;;5020196;28;20037;-81
2023/05/02 14:10:26;;;;;;;5.95;2.00;;;;;;;;;;5023037;28;20087;-81
2023/05/02 14:12:51;;;;;;;7.38;2.08;;;;;;;;;;5053357;28;20914;-80
2023/05/02 14:15:17;;;;;;;7.70;2.28;;;;;;;;;;5030442;28;20060;-82
2023/05/02 14:17:42;;;;;;;4.60;2.00;;;;;;;;;;5041068;28;20041;-82
2023/05/02 14:20:09;;;;;;;5.30;2.20;;;;;;;;;;5058845;28;20039;-82
2023/05/02 14:22:34;;;;;;;4.97;1.83;;;;;;;;;;5052043;28;20033;-82
2023/05/02 14:25:00;;;;;;;7.55;2.15;;;;;;;;;;5048441;28;20090;-81
2023/05/02 14:27:25;;;;;;;3.97;1.90;;;;;;;;;;5052921;28;20045;-82
2023/05/02 14:29:51;;;;;;;7.10;2.53;;;;;;;;;;5052054;28;20415;-80
2023/05/02 14:32:31;;;;;;;10.77;2.95;;;;;;;;;;5011528;28;20075;-81
2023/05/02 14:34:57;;;;;;;5.20;2.50;;;;;;;;;;5007426;28;20148;-81
2023/05/02 14:37:22;;;;;;;6.72;2.30;;;;;;;;;;5021807;28;20039;-81
2023/05/02 14:39:51;;;;;;;6.03;2.20;;;;;;;;;;5035550;28;20747;-81
2023/05/02 14:42:16;;;;;;;8.63;2.58;;;;;;;;;;5049341;28;20037;-81
2023/05/02 14:44:42;;;;;;;7.25;2.30;;;;;;;;;;5044043;28;20032;-81
2023/05/02 14:47:07;;;;;;;7.78;2.80;;;;;;;;;;5051452;28;20041;-81